Petawawa Airport
CYWA : now visible

Airfield :











YOU CAN JOIN US ON...

 
LOGIN :

Register | Disclaimer

   EN    FR    IT 

 









Legend :    VFR   Marginal VFR   IFR   Intensive IFR   Very Intensive IFR
Visi :
Ceiling :
>= 8 km
>= 3000ft
5 to 8 km
1000 to 3000 ft
1500m to 5 km
500 to 1000 ft
800 to 1500m
200 to 500 ft
< 800m
< 200 ft
Symbols :   Thunderstorms  Fog  Heavy snow  Heavy precipitations  Wind > 20 kt







- Airport Elevation : 427 ft
- IATA code : YWA


CYWA - Petawawa

CURRENT METAR :
  • 191400Z AUTO 27009KT 230V300 9SM BKN027 BKN042 BKN051 BKN087 28/22 A2970 RMK SLP058

EXPIRED METARs :
  • 191300Z AUTO 09003KT 9SM CLR 24/21 A2970 RMK PCPN 0.5MM PAST HR SLP057
  • 191200Z AUTO 12004KT 100V160 9SM SCT025 BKN053 BKN058 23/20 A2971 RMK SLP060

TAF TAF CYWA
Valid from the 19 at 12:00 until the 20 at 00:00 UTC


191130Z 1912/1924 VRB03KT P6SM FEW030 BKN060
FM191500 27010KT P6SM BKN030 BKN060
FM192100 27012KT P6SM SCT060 RMK FCST BASED ON AUTO OBS. NXT FCST BY 191800Z
CZYZ FIR / North America



MET'MAP, your aeronautical weather chart ! - Copyright ORBIFLY December 2007 - Disclaimer

ORBIFLY MET'MAP TEAM :

Programming & Development : Alexandra Zaïnal
Concept & Development : Baudouin d'Aumeries
Co-Development & Prog : Marc-Olivier Méhu
Technical & hardware support : Manuel Goepfert

Contact : metmap@orbifly.com




SOURCES & CREDITS :

   NOAA       Earth
Advisory